createdAt,value
2022-08-23T00:01:24.225Z,4.78
2022-08-23T00:03:28.654Z,4.32
2022-08-23T00:05:31.433Z,4.40
2022-08-23T00:07:38.042Z,4.53
2022-08-23T00:09:41.088Z,6.88
2022-08-23T00:11:48.238Z,6.78
2022-08-23T00:13:53.638Z,7.20
2022-08-23T00:15:58.813Z,7.28
2022-08-23T00:18:01.240Z,4.93
2022-08-23T00:20:12.800Z,4.82
2022-08-23T00:22:15.875Z,4.40
2022-08-23T00:24:20.054Z,6.18
2022-08-23T00:26:22.428Z,4.93
2022-08-23T00:28:24.682Z,3.47
2022-08-23T00:30:26.990Z,5.65
2022-08-23T00:32:32.890Z,3.38
2022-08-23T00:34:37.035Z,5.22
2022-08-23T00:36:40.051Z,3.70
2022-08-23T00:38:42.396Z,5.03
2022-08-23T00:40:51.313Z,5.88
2022-08-23T00:43:12.137Z,4.60
2022-08-23T00:45:36.489Z,5.90
2022-08-23T00:47:43.098Z,3.95
2022-08-23T00:49:54.025Z,7.28
2022-08-23T00:52:02.850Z,6.72
2022-08-23T00:54:05.942Z,3.35
2022-08-23T00:56:11.244Z,2.95
2022-08-23T00:58:18.557Z,4.43
2022-08-23T01:00:21.367Z,3.67
2022-08-23T01:02:23.902Z,2.83
2022-08-23T01:04:31.168Z,4.10
2022-08-23T01:06:52.124Z,5.15
2022-08-23T01:09:00.213Z,6.63
2022-08-23T01:11:11.587Z,3.22
2022-08-23T01:13:20.195Z,5.15
2022-08-23T01:15:32.151Z,4.68
2022-08-23T01:17:44.729Z,3.65
2022-08-23T01:19:57.646Z,4.43
2022-08-23T01:22:24.544Z,4.03
2022-08-23T01:25:05.940Z,3.22
2022-08-23T01:26:50.676Z,3.35
2022-08-23T01:28:56.388Z,4.18
2022-08-23T01:30:59.716Z,4.57
2022-08-23T01:33:06.457Z,7.50
2022-08-23T01:35:10.761Z,5.55
2022-08-23T01:37:14.355Z,4.00
2022-08-23T01:39:16.766Z,5.93
2022-08-23T01:41:19.440Z,6.40
2022-08-23T01:43:23.172Z,4.30
2022-08-23T01:45:29.025Z,3.55
2022-08-23T01:47:32.052Z,4.97
2022-08-23T01:49:35.400Z,3.40
2022-08-23T01:51:38.929Z,4.82
2022-08-23T01:53:43.176Z,6.07
2022-08-23T01:55:45.580Z,2.97
2022-08-23T01:57:50.689Z,4.65
2022-08-23T01:59:53.834Z,3.50
2022-08-23T02:01:56.792Z,6.25
2022-08-23T02:04:04.872Z,3.45
2022-08-23T02:06:07.704Z,5.07
2022-08-23T02:08:28.708Z,4.93
2022-08-23T02:10:33.527Z,5.57
2022-08-23T02:12:38.875Z,15.02
2022-08-23T02:14:47.347Z,4.28
2022-08-23T02:17:03.045Z,4.22
2022-08-23T02:19:12.868Z,4.20
2022-08-23T02:21:14.827Z,3.53
2022-08-23T02:23:19.065Z,3.42
2022-08-23T02:25:21.291Z,4.90
2022-08-23T02:27:23.423Z,4.88
2022-08-23T02:29:29.732Z,4.80
2022-08-23T02:31:32.527Z,4.75
2022-08-23T02:33:35.505Z,7.38
2022-08-23T02:35:38.874Z,7.47
2022-08-23T02:37:40.998Z,5.20
2022-08-23T02:39:43.822Z,8.00
2022-08-23T02:41:47.988Z,7.47
2022-08-23T02:43:53.796Z,6.38
2022-08-23T02:45:57.660Z,6.40
2022-08-23T02:48:00.366Z,5.75
2022-08-23T02:50:10.396Z,6.93
2022-08-23T02:52:12.762Z,8.27
2022-08-23T02:54:15.109Z,5.22
2022-08-23T02:56:21.911Z,6.13
2022-08-23T02:58:26.671Z,7.18
2022-08-23T03:00:29.025Z,6.97
2022-08-23T03:02:31.617Z,4.85
2022-08-23T03:04:34.534Z,6.13
2022-08-23T03:06:39.424Z,7.47
2022-08-23T03:08:42.709Z,6.07
2022-08-23T03:10:48.774Z,4.05
2022-08-23T03:12:51.086Z,5.63
2022-08-23T03:14:53.911Z,7.07
2022-08-23T03:16:58.341Z,4.63
2022-08-23T03:19:02.419Z,4.45
2022-08-23T03:21:06.954Z,5.70
2022-08-23T03:23:10.432Z,4.30
2022-08-23T03:25:12.760Z,4.07
2022-08-23T03:27:44.628Z,5.55
2022-08-23T03:29:49.111Z,5.68
2022-08-23T03:31:51.879Z,5.85
2022-08-23T03:33:56.967Z,4.65
2022-08-23T03:36:02.178Z,6.35
2022-08-23T03:38:05.530Z,6.60
2022-08-23T03:40:08.603Z,4.07
2022-08-23T03:42:10.867Z,3.50
2022-08-23T03:44:12.982Z,5.05
2022-08-23T03:46:24.611Z,4.07
2022-08-23T03:48:33.290Z,5.05
2022-08-23T03:50:35.643Z,4.65
2022-08-23T03:52:37.886Z,4.20
2022-08-23T03:54:40.144Z,3.45
2022-08-23T03:57:03.055Z,4.13
2022-08-23T03:59:13.683Z,6.60
2022-08-23T04:01:16.377Z,4.22
2022-08-23T04:03:18.709Z,5.35
2022-08-23T04:05:38.437Z,5.45
2022-08-23T04:07:47.903Z,6.28
2022-08-23T04:09:54.841Z,5.95
2022-08-23T04:11:59.967Z,5.45
2022-08-23T04:14:02.903Z,4.95
2022-08-23T04:16:06.322Z,7.28
2022-08-23T04:18:09.468Z,4.20
2022-08-23T04:20:12.139Z,4.43
2022-08-23T04:22:24.988Z,5.30
2022-08-23T04:24:27.966Z,6.68
2022-08-23T04:26:30.713Z,5.45
2022-08-23T04:28:34.402Z,4.47
2022-08-23T04:30:36.659Z,4.80
2022-08-23T04:32:41.258Z,4.15
2022-08-23T04:34:51.366Z,6.60
2022-08-23T04:36:55.186Z,6.03
2022-08-23T04:38:58.049Z,8.40
2022-08-23T04:41:18.791Z,6.20
2022-08-23T04:43:21.959Z,5.32
2022-08-23T04:45:27.346Z,7.10
2022-08-23T04:47:29.810Z,8.45
2022-08-23T04:49:38.322Z,7.38
2022-08-23T04:51:40.900Z,8.23
2022-08-23T04:53:44.550Z,11.30
2022-08-23T04:56:06.261Z,8.35
2022-08-23T04:58:10.027Z,9.45
2022-08-23T05:00:21.438Z,12.55
2022-08-23T05:02:30.538Z,12.48
2022-08-23T05:04:32.862Z,11.68
2022-08-23T05:06:35.725Z,10.60
2022-08-23T05:08:39.151Z,13.10
2022-08-23T05:10:42.840Z,13.98
2022-08-23T05:12:48.654Z,19.65
2022-08-23T05:14:52.797Z,12.60
2022-08-23T05:16:58.045Z,12.07
2022-08-23T05:19:00.919Z,15.05
2022-08-23T05:21:03.751Z,12.68
2022-08-23T05:23:06.664Z,12.43
2022-08-23T05:25:11.111Z,10.95
2022-08-23T05:27:14.212Z,13.00
2022-08-23T05:29:16.724Z,7.78
2022-08-23T05:31:27.369Z,7.63
2022-08-23T05:33:37.350Z,8.13
2022-08-23T05:35:40.502Z,8.52
2022-08-23T05:37:43.030Z,8.13
2022-08-23T05:39:46.006Z,8.73
2022-08-23T05:41:48.843Z,9.80
2022-08-23T05:43:51.237Z,10.60
2022-08-23T05:46:26.632Z,8.02
2022-08-23T05:48:57.142Z,7.55
2022-08-23T05:51:19.378Z,8.65
2022-08-23T05:53:23.617Z,8.35
2022-08-23T05:55:27.638Z,7.55
2022-08-23T05:57:55.033Z,7.80
2022-08-23T05:59:58.171Z,7.53
2022-08-23T06:02:00.516Z,8.10
2022-08-23T06:04:08.086Z,11.05
2022-08-23T06:06:11.736Z,8.23
2022-08-23T06:08:14.862Z,6.65
2022-08-23T06:10:18.190Z,7.30
2022-08-23T06:12:25.525Z,7.40
2022-08-23T06:14:28.525Z,8.00
2022-08-23T06:16:36.857Z,7.35
2022-08-23T06:18:39.638Z,9.40
2022-08-23T06:21:06.854Z,7.47
2022-08-23T06:23:23.712Z,8.85
2022-08-23T06:25:25.989Z,9.55
2022-08-23T06:27:35.216Z,11.00
2022-08-23T06:29:38.799Z,8.32
2022-08-23T06:32:00.714Z,8.18
2022-08-23T06:34:07.876Z,7.55
2022-08-23T06:36:34.401Z,9.55
2022-08-23T06:39:03.650Z,6.32
2022-08-23T06:41:21.227Z,6.20
2022-08-23T06:43:39.543Z,7.22
2022-08-23T06:46:00.614Z,7.05
2022-08-23T06:48:04.859Z,7.13
2022-08-23T06:50:09.744Z,7.97
2022-08-23T06:52:30.622Z,6.40
2022-08-23T06:54:49.248Z,7.30
2022-08-23T06:57:10.095Z,6.55
2022-08-23T06:59:34.707Z,5.35
2022-08-23T07:02:04.241Z,5.97
2022-08-23T07:04:45.304Z,5.57
2022-08-23T07:07:10.724Z,6.85
2022-08-23T07:09:14.492Z,6.53
2022-08-23T07:11:17.227Z,6.50
2022-08-23T07:13:19.386Z,5.50
2022-08-23T07:15:21.455Z,5.30
2022-08-23T07:17:24.098Z,5.78
2022-08-23T07:19:30.180Z,5.97
2022-08-23T07:21:32.597Z,9.57
2022-08-23T07:23:35.356Z,5.70
2022-08-23T07:25:40.962Z,4.65
2022-08-23T07:27:45.732Z,6.05
2022-08-23T07:29:49.779Z,6.00
2022-08-23T07:31:54.753Z,4.40
2022-08-23T07:34:00.329Z,6.47
2022-08-23T07:36:03.457Z,7.40
2022-08-23T07:38:06.796Z,4.15
2022-08-23T07:40:11.652Z,4.10
2022-08-23T07:42:24.337Z,3.67
2022-08-23T07:44:30.692Z,4.68
2022-08-23T07:46:33.948Z,3.55
2022-08-23T07:48:53.571Z,4.10
2022-08-23T07:51:02.425Z,3.22
2022-08-23T07:53:04.899Z,2.85
2022-08-23T07:55:07.908Z,4.28
2022-08-23T07:57:25.103Z,3.28
2022-08-23T07:59:49.226Z,4.15
2022-08-23T08:02:16.627Z,4.63
2022-08-23T08:04:20.094Z,3.42
2022-08-23T08:06:28.396Z,3.83
2022-08-23T08:08:30.593Z,2.78
2022-08-23T08:10:33.004Z,3.33
2022-08-23T08:12:37.233Z,2.67
2022-08-23T08:14:49.619Z,2.72
2022-08-23T08:16:56.398Z,6.05
2022-08-23T08:19:19.770Z,2.78
2022-08-23T08:21:51.501Z,2.70
2022-08-23T08:24:14.634Z,3.08
2022-08-23T08:26:28.613Z,2.67
2022-08-23T08:28:33.293Z,4.18
2022-08-23T08:30:36.336Z,3.63
2022-08-23T08:32:47.003Z,2.95
2022-08-23T08:34:52.443Z,2.38
2022-08-23T08:36:58.475Z,2.97
2022-08-23T08:39:08.605Z,3.25
2022-08-23T08:41:20.112Z,2.78
2022-08-23T08:43:51.444Z,2.70
2022-08-23T08:46:23.214Z,3.53
2022-08-23T08:48:28.400Z,2.42
2022-08-23T08:50:40.997Z,4.15
2022-08-23T08:53:10.978Z,2.80
2022-08-23T08:55:45.341Z,2.65
2022-08-23T08:57:51.763Z,3.88
2022-08-23T09:00:02.172Z,2.95
2022-08-23T09:02:32.015Z,3.17
2022-08-23T09:04:37.242Z,3.33
2022-08-23T09:07:08.189Z,3.67
2022-08-23T09:09:48.061Z,3.33
2022-08-23T09:12:12.540Z,3.63
2022-08-23T09:14:23.362Z,3.65
2022-08-23T09:16:43.208Z,4.40
2022-08-23T09:18:46.285Z,2.90
2022-08-23T09:20:53.893Z,3.55
2022-08-23T09:23:06.792Z,4.53
2022-08-23T09:25:13.061Z,4.05
2022-08-23T09:27:32.819Z,4.75
2022-08-23T09:29:40.602Z,5.13
2022-08-23T09:31:47.532Z,4.43
2022-08-23T09:33:51.047Z,4.07
2022-08-23T09:36:26.427Z,3.80
2022-08-23T09:38:35.667Z,4.70
2022-08-23T09:40:50.344Z,3.47
2022-08-23T09:43:07.563Z,3.30
2022-08-23T09:45:51.037Z,3.63
2022-08-23T09:47:56.945Z,4.70
2022-08-23T09:50:28.248Z,3.85
2022-08-23T09:52:37.910Z,6.72
2022-08-23T09:54:47.635Z,3.90
2022-08-23T09:56:57.579Z,4.32
2022-08-23T09:59:01.451Z,3.25
2022-08-23T10:01:29.052Z,3.58
2022-08-23T10:03:43.001Z,5.80
2022-08-23T10:05:57.570Z,3.45
2022-08-23T10:08:08.842Z,5.15
2022-08-23T10:10:24.578Z,3.80
2022-08-23T10:12:29.047Z,7.10
2022-08-23T10:14:33.970Z,3.30
2022-08-23T10:16:58.741Z,3.30
2022-08-23T10:19:10.769Z,3.30
2022-08-23T10:21:25.762Z,3.38
2022-08-23T10:24:00.661Z,4.63
2022-08-23T10:26:03.271Z,4.57
2022-08-23T10:28:43.154Z,3.63
2022-08-23T10:31:09.576Z,3.17
2022-08-23T10:33:19.272Z,3.38
2022-08-23T10:35:26.317Z,3.35
2022-08-23T10:37:45.116Z,3.60
2022-08-23T10:40:04.243Z,3.40
2022-08-23T10:42:17.305Z,3.60
2022-08-23T10:44:35.542Z,5.93
2022-08-23T10:47:04.238Z,4.15
2022-08-23T10:49:08.128Z,4.90
2022-08-23T10:51:13.804Z,4.43
2022-08-23T10:53:18.529Z,4.55
2022-08-23T10:55:39.496Z,4.53
2022-08-23T10:57:45.488Z,3.15
2022-08-23T10:59:53.065Z,3.92
2022-08-23T11:02:04.047Z,3.92
2022-08-23T11:04:24.231Z,4.07
2022-08-23T11:06:56.220Z,4.15
2022-08-23T11:09:05.960Z,3.58
2022-08-23T11:11:40.130Z,3.22
2022-08-23T11:13:53.534Z,3.90
2022-08-23T11:15:58.999Z,3.63
2022-08-23T11:18:09.228Z,3.40
2022-08-23T11:20:52.203Z,4.07
2022-08-23T11:23:01.608Z,4.05
2022-08-23T11:25:16.381Z,4.20
2022-08-23T11:27:36.299Z,7.78
2022-08-23T11:29:41.600Z,7.28
2022-08-23T11:32:16.509Z,3.22
2022-08-23T11:34:29.976Z,2.95
2022-08-23T11:36:40.476Z,3.72
2022-08-23T11:38:48.765Z,2.60
2022-08-23T11:40:52.374Z,3.20
2022-08-23T11:43:06.493Z,3.20
2022-08-23T11:45:40.641Z,4.10
2022-08-23T11:47:47.211Z,6.20
2022-08-23T11:50:23.489Z,3.75
2022-08-23T11:52:46.828Z,5.35
2022-08-23T11:55:07.579Z,3.78
2022-08-23T11:57:31.278Z,4.10
2022-08-23T12:00:20.960Z,5.28
2022-08-23T12:03:02.706Z,4.40
2022-08-23T12:05:23.009Z,3.47
2022-08-23T12:07:51.694Z,6.95
2022-08-23T12:09:56.144Z,4.55
2022-08-23T12:11:57.992Z,4.18
2022-08-23T12:14:21.712Z,3.08
2022-08-23T12:16:24.967Z,4.43
2022-08-23T12:18:27.473Z,4.38
2022-08-23T12:20:31.574Z,5.53
2022-08-23T12:23:01.540Z,4.93
2022-08-23T12:25:07.390Z,3.70
2022-08-23T12:27:21.695Z,2.95
2022-08-23T12:30:01.487Z,2.90
2022-08-23T12:32:07.872Z,7.15
2022-08-23T12:34:23.238Z,3.88
2022-08-23T12:37:11.326Z,4.78
2022-08-23T12:39:53.928Z,6.03
2022-08-23T12:42:15.878Z,4.30
2022-08-23T12:44:21.840Z,4.65
2022-08-23T12:46:34.837Z,5.50
2022-08-23T12:48:47.466Z,5.80
2022-08-23T12:50:59.870Z,5.80
2022-08-23T12:53:09.930Z,4.03
2022-08-23T12:55:20.189Z,6.13
2022-08-23T12:57:39.889Z,5.88
2022-08-23T13:00:18.518Z,8.95
2022-08-23T13:02:32.325Z,10.32
2022-08-23T13:04:35.995Z,9.93
2022-08-23T13:06:45.870Z,7.85
2022-08-23T13:09:02.723Z,6.70
2022-08-23T13:11:08.328Z,7.88
2022-08-23T13:13:14.280Z,6.35
2022-08-23T13:15:45.057Z,7.20
2022-08-23T13:17:47.185Z,7.13
2022-08-23T13:20:11.350Z,7.10
2022-08-23T13:22:22.551Z,5.28
2022-08-23T13:24:39.131Z,8.02
2022-08-23T13:26:43.706Z,5.10
2022-08-23T13:29:03.393Z,10.25
2022-08-23T13:31:08.612Z,9.95
2022-08-23T13:33:17.457Z,11.02
2022-08-23T13:35:37.107Z,8.20
2022-08-23T13:37:46.346Z,7.90
2022-08-23T13:40:01.251Z,9.18
2022-08-23T13:42:03.838Z,7.78
2022-08-23T13:44:09.160Z,7.85
2022-08-23T13:46:22.471Z,6.80
2022-08-23T13:48:33.093Z,7.60
2022-08-23T13:50:37.363Z,5.00
2022-08-23T13:52:56.602Z,5.65
2022-08-23T13:55:02.083Z,6.28
2022-08-23T13:57:15.895Z,6.95
2022-08-23T13:59:36.898Z,5.57
2022-08-23T14:01:39.147Z,5.85
2022-08-23T14:03:41.387Z,4.47
2022-08-23T14:05:43.764Z,4.85
2022-08-23T14:07:47.863Z,5.82
2022-08-23T14:09:54.404Z,5.05
2022-08-23T14:11:59.925Z,6.00
2022-08-23T14:14:05.374Z,4.93
2022-08-23T14:18:34.652Z,5.68
2022-08-23T14:20:44.281Z,5.47
2022-08-23T14:22:48.343Z,4.82
2022-08-23T14:24:51.808Z,5.03
2022-08-23T14:26:56.146Z,6.18
2022-08-23T14:28:58.241Z,6.55
2022-08-23T14:31:01.044Z,6.18
2022-08-23T14:33:06.258Z,5.40
2022-08-23T14:35:09.527Z,5.97
2022-08-23T14:38:00.706Z,8.32
2022-08-23T14:39:35.862Z,6.07
2022-08-23T14:41:37.843Z,4.65
2022-08-23T14:43:40.079Z,5.45
2022-08-23T14:45:42.605Z,5.93
2022-08-23T14:47:44.609Z,6.00
2022-08-23T14:49:52.096Z,9.00
2022-08-23T14:51:55.993Z,4.35
2022-08-23T14:53:58.362Z,4.63
2022-08-23T14:56:20.673Z,4.30
2022-08-23T14:58:25.210Z,4.70
2022-08-23T15:00:27.660Z,5.47
2022-08-23T15:02:30.312Z,4.72
2022-08-23T15:04:34.738Z,4.20
2022-08-23T15:07:00.440Z,6.20
2022-08-23T15:09:04.888Z,4.55
2022-08-23T15:13:35.505Z,8.23
2022-08-23T15:15:39.524Z,7.45
2022-08-23T15:17:57.075Z,9.75
2022-08-23T15:19:59.650Z,9.25
2022-08-23T15:22:10.016Z,7.05
2022-08-23T15:24:24.061Z,6.32
2022-08-23T15:26:29.618Z,5.70
2022-08-23T15:28:32.200Z,5.07
2022-08-23T15:30:34.966Z,6.50
2022-08-23T15:32:37.527Z,9.02
2022-08-23T15:34:44.348Z,5.70
2022-08-23T15:36:48.914Z,12.93
2022-08-23T15:38:51.756Z,6.05
2022-08-23T15:40:57.308Z,5.38
2022-08-23T15:43:03.466Z,4.53
2022-08-23T15:45:07.140Z,4.03
2022-08-23T15:47:20.300Z,4.55
2022-08-23T15:49:24.363Z,5.45
2022-08-23T15:51:26.696Z,4.93
2022-08-23T15:53:28.933Z,6.22
2022-08-23T15:55:37.263Z,6.30
2022-08-23T15:57:51.740Z,2.53
2022-08-23T15:59:55.856Z,2.90
2022-08-23T16:01:58.437Z,4.55
2022-08-23T16:04:02.673Z,3.88
2022-08-23T16:06:06.228Z,2.38
2022-08-23T16:08:12.230Z,1.88
2022-08-23T16:10:15.562Z,3.60
2022-08-23T16:12:17.862Z,1.98
2022-08-23T16:14:20.272Z,1.92
2022-08-23T16:16:26.425Z,2.97
2022-08-23T16:18:28.737Z,2.75
2022-08-23T16:20:33.606Z,2.08
2022-08-23T16:22:36.753Z,3.08
2022-08-23T16:24:41.776Z,2.33
2022-08-23T16:26:45.661Z,1.88
2022-08-23T16:28:50.097Z,1.73
2022-08-23T16:30:52.690Z,3.72
2022-08-23T16:32:56.132Z,1.92
2022-08-23T16:34:58.684Z,1.52
2022-08-23T16:37:04.881Z,1.25
2022-08-23T16:39:07.997Z,1.83
2022-08-23T16:41:10.294Z,1.00
2022-08-23T16:43:13.002Z,1.80
2022-08-23T16:45:15.155Z,1.95
2022-08-23T16:47:18.426Z,2.30
2022-08-23T16:49:20.760Z,2.17
2022-08-23T16:51:26.218Z,1.25
2022-08-23T16:53:28.508Z,1.67
2022-08-23T16:55:30.963Z,2.30
2022-08-23T16:57:33.828Z,3.17
2022-08-23T16:59:40.394Z,2.03
2022-08-23T17:01:57.891Z,2.92
2022-08-23T17:04:00.038Z,2.08
2022-08-23T17:06:02.207Z,2.75
2022-08-23T17:08:04.726Z,2.78
2022-08-23T17:10:08.818Z,4.68
2022-08-23T17:12:38.311Z,4.97
2022-08-23T17:14:40.475Z,3.92
2022-08-23T17:16:44.242Z,5.03
2022-08-23T17:18:46.529Z,3.78
2022-08-23T17:20:53.392Z,2.55
2022-08-23T17:22:56.864Z,2.50
2022-08-23T17:24:59.007Z,2.30
2022-08-23T17:27:04.017Z,2.33
2022-08-23T17:29:07.444Z,3.15
2022-08-23T17:31:13.560Z,4.43
2022-08-23T17:33:15.785Z,1.92
2022-08-23T17:35:27.310Z,2.13
2022-08-23T17:37:29.763Z,2.55
2022-08-23T17:39:32.034Z,3.80
2022-08-23T17:41:37.013Z,7.50
2022-08-23T17:43:39.191Z,8.35
2022-08-23T17:45:46.603Z,4.55
2022-08-23T17:47:48.994Z,6.25
2022-08-23T17:49:55.466Z,3.65
2022-08-23T17:51:57.678Z,4.80
2022-08-23T17:54:00.176Z,3.58
2022-08-23T17:56:02.344Z,3.53
2022-08-23T17:58:09.957Z,3.65
2022-08-23T18:00:16.814Z,4.82
2022-08-23T18:02:20.871Z,3.45
2022-08-23T18:04:23.037Z,2.90
2022-08-23T18:06:26.720Z,6.70
2022-08-23T18:08:29.034Z,3.83
2022-08-23T18:10:31.864Z,3.70
2022-08-23T18:12:34.634Z,3.35
2022-08-23T18:14:36.780Z,4.10
2022-08-23T18:16:39.635Z,10.35
2022-08-23T18:18:42.287Z,3.05
2022-08-23T18:20:44.846Z,5.60
2022-08-23T18:22:47.957Z,3.03
2022-08-23T18:24:50.119Z,5.35
2022-08-23T18:27:10.877Z,3.33
2022-08-23T18:29:14.657Z,5.63
2022-08-23T18:31:19.849Z,6.10
2022-08-23T18:33:25.465Z,4.50
2022-08-23T18:35:34.739Z,4.00
2022-08-23T18:37:36.938Z,6.60
2022-08-23T18:39:39.113Z,5.20
2022-08-23T18:41:42.451Z,5.78
2022-08-23T18:43:44.818Z,6.32
2022-08-23T18:45:49.009Z,9.60
2022-08-23T18:47:50.951Z,9.88
2022-08-23T18:49:52.851Z,4.55
2022-08-23T18:51:54.926Z,9.15
2022-08-23T18:53:57.626Z,6.03
2022-08-23T18:55:59.641Z,3.00
2022-08-23T18:58:02.428Z,8.52
2022-08-23T19:00:05.840Z,5.47
2022-08-23T19:02:08.427Z,5.13
2022-08-23T19:04:11.335Z,6.57
2022-08-23T19:06:13.225Z,6.43
2022-08-23T19:08:15.672Z,5.53
2022-08-23T19:10:20.487Z,6.32
2022-08-23T19:12:22.918Z,4.93
2022-08-23T19:14:24.965Z,5.47
2022-08-23T19:16:27.584Z,7.55
2022-08-23T19:18:30.415Z,5.85
2022-08-23T19:20:33.150Z,8.00
2022-08-23T19:22:35.814Z,9.07
2022-08-23T19:24:38.454Z,10.50
2022-08-23T19:26:44.744Z,10.20
2022-08-23T19:28:47.880Z,7.53
2022-08-23T19:30:52.404Z,8.15
2022-08-23T19:32:55.102Z,7.00
2022-08-23T19:34:59.018Z,7.18
2022-08-23T19:37:01.838Z,4.85
2022-08-23T19:39:06.367Z,5.80
2022-08-23T19:41:09.701Z,5.40
2022-08-23T19:43:12.399Z,7.30
2022-08-23T19:45:15.832Z,6.13
2022-08-23T19:47:21.135Z,6.93
2022-08-23T19:49:27.326Z,6.85
2022-08-23T19:51:30.108Z,4.20
2022-08-23T19:53:32.526Z,8.60
2022-08-23T19:55:38.422Z,5.93
2022-08-23T19:57:40.502Z,8.43
2022-08-23T19:59:43.381Z,10.23
2022-08-23T20:01:46.554Z,12.23
2022-08-23T20:03:49.308Z,11.20
2022-08-23T20:05:53.113Z,3.50
2022-08-23T20:07:59.191Z,4.00
2022-08-23T20:10:01.286Z,4.45
2022-08-23T20:12:03.823Z,6.10
2022-08-23T20:14:07.170Z,4.25
2022-08-23T20:16:09.255Z,3.78
2022-08-23T20:18:11.601Z,6.63
2022-08-23T20:20:14.188Z,6.28
2022-08-23T20:22:36.312Z,8.52
2022-08-23T20:24:51.730Z,9.85
2022-08-23T20:26:55.092Z,6.90
2022-08-23T20:29:00.276Z,6.47
2022-08-23T20:31:23.663Z,6.00
2022-08-23T20:33:26.321Z,6.15
2022-08-23T20:35:28.986Z,5.60
2022-08-23T20:37:34.192Z,5.28
2022-08-23T20:39:36.582Z,4.20
2022-08-23T20:41:40.395Z,7.00
2022-08-23T20:43:42.717Z,5.40
2022-08-23T20:45:45.184Z,6.85
2022-08-23T20:47:52.418Z,12.27
2022-08-23T20:49:54.486Z,8.35
2022-08-23T20:51:57.118Z,7.40
2022-08-23T20:54:00.468Z,10.02
2022-08-23T20:56:03.038Z,5.57
2022-08-23T20:58:08.672Z,5.50
2022-08-23T21:00:14.428Z,2.35
2022-08-23T21:02:16.785Z,4.35
2022-08-23T21:04:19.789Z,5.50
2022-08-23T21:06:36.381Z,5.15
2022-08-23T21:08:43.447Z,5.75
2022-08-23T21:10:46.207Z,5.00
2022-08-23T21:12:48.801Z,3.60
2022-08-23T21:14:51.059Z,4.85
2022-08-23T21:16:53.435Z,4.22
2022-08-23T21:18:56.996Z,5.90
2022-08-23T21:20:59.839Z,5.13
2022-08-23T21:23:02.250Z,4.50
2022-08-23T21:25:05.716Z,3.97
2022-08-23T21:27:09.463Z,3.83
2022-08-23T21:29:12.192Z,5.28
2022-08-23T21:31:17.530Z,4.70
2022-08-23T21:33:22.199Z,8.40
2022-08-23T21:35:24.370Z,4.35
2022-08-23T21:37:27.469Z,5.07
2022-08-23T21:39:29.844Z,2.33
2022-08-23T21:41:32.199Z,4.28
2022-08-23T21:43:37.431Z,1.83
2022-08-23T21:45:41.540Z,3.42
2022-08-23T21:47:44.237Z,2.80
2022-08-23T21:49:46.987Z,3.55
2022-08-23T21:51:50.063Z,3.90
2022-08-23T21:53:54.406Z,5.38
2022-08-23T21:55:58.396Z,4.53
2022-08-23T21:58:00.652Z,1.80
2022-08-23T22:00:04.231Z,3.33
2022-08-23T22:02:14.796Z,4.35
2022-08-23T22:04:17.587Z,3.80
2022-08-23T22:06:19.942Z,4.72
2022-08-23T22:08:22.124Z,2.38
2022-08-23T22:10:25.788Z,4.07
2022-08-23T22:12:28.516Z,2.35
2022-08-23T22:14:32.371Z,2.55
2022-08-23T22:16:35.487Z,2.47
2022-08-23T22:18:37.710Z,3.25
2022-08-23T22:20:40.438Z,3.97
2022-08-23T22:22:43.786Z,4.03
2022-08-23T22:24:46.702Z,2.70
2022-08-23T22:26:49.133Z,2.33
2022-08-23T22:28:54.891Z,3.78
2022-08-23T22:31:01.264Z,4.55
2022-08-23T22:33:04.024Z,6.47
2022-08-23T22:35:09.005Z,11.95
2022-08-23T22:37:11.349Z,9.77
2022-08-23T22:39:13.634Z,8.55
2022-08-23T22:41:18.462Z,6.20
2022-08-23T22:43:21.116Z,7.18
2022-08-23T22:45:23.351Z,9.90
2022-08-23T22:47:27.350Z,6.68
2022-08-23T22:49:31.046Z,10.60
2022-08-23T22:51:35.093Z,10.93
2022-08-23T22:53:45.067Z,11.75
2022-08-23T22:55:51.344Z,13.48
2022-08-23T22:57:53.597Z,13.25
2022-08-23T22:59:58.500Z,17.30
2022-08-23T23:02:03.230Z,6.45
2022-08-23T23:04:09.100Z,6.63
2022-08-23T23:06:15.408Z,4.60
2022-08-23T23:08:30.261Z,6.68
2022-08-23T23:10:32.567Z,6.80
2022-08-23T23:12:34.665Z,3.47
2022-08-23T23:14:37.143Z,2.95
2022-08-23T23:16:39.994Z,4.43
2022-08-23T23:19:04.687Z,5.97
2022-08-23T23:21:09.411Z,6.47
2022-08-23T23:23:16.254Z,6.40
2022-08-23T23:25:18.530Z,5.13
2022-08-23T23:27:20.906Z,3.30
2022-08-23T23:29:23.962Z,2.88
2022-08-23T23:31:26.632Z,2.70
2022-08-23T23:33:33.788Z,4.82
2022-08-23T23:35:37.837Z,7.90
2022-08-23T23:37:40.306Z,17.55
2022-08-23T23:39:42.435Z,26.17
2022-08-23T23:41:45.037Z,24.17
2022-08-23T23:43:47.876Z,31.65
2022-08-23T23:45:50.159Z,30.77
2022-08-23T23:47:52.541Z,23.33
2022-08-23T23:49:54.831Z,17.17
2022-08-23T23:51:57.401Z,9.27
2022-08-23T23:54:01.107Z,16.15
2022-08-23T23:56:10.677Z,6.20
2022-08-23T23:58:12.795Z,29.60
